Time;durP1;ratioP1;P1;durP2;ratioP2;P2;SDS_P1;SDS_P2;PMS_P1;PMS_P2;Temp;Humidity;BMP_temperature;BMP_pressure;BME280_temperature;BME280_humidity;BME280_pressure;Samples;Min_cycle;Max_cycle;Signal;HPM_P1;HPM_P2
2023/01/19 00:01:22;;;;;;;38.45;16.00;;;2.90;99.90;;;;;;5083532;28;20028;-72
2023/01/19 00:03:47;;;;;;;37.50;17.05;;;2.90;99.90;;;;;;5081724;28;20074;-70
2023/01/19 00:06:13;;;;;;;39.97;18.33;;;2.90;99.90;;;;;;5082958;28;20032;-73
2023/01/19 00:08:39;;;;;;;40.63;17.40;;;2.90;99.90;;;;;;5081567;28;20029;-70
2023/01/19 00:11:05;;;;;;;37.13;18.00;;;2.90;99.90;;;;;;5082839;28;20036;-72
2023/01/19 00:13:32;;;;;;;35.40;16.80;;;2.90;99.90;;;;;;5082684;28;20088;-71
2023/01/19 00:15:57;;;;;;;31.38;17.13;;;2.90;99.90;;;;;;5083270;28;20035;-71
2023/01/19 00:18:23;;;;;;;41.85;17.35;;;2.90;99.90;;;;;;5082575;28;20020;-75
2023/01/19 00:20:49;;;;;;;43.00;17.55;;;2.90;99.90;;;;;;5082753;28;20028;-73
2023/01/19 00:23:15;;;;;;;41.67;20.10;;;2.90;99.90;;;;;;5081036;28;20092;-73
2023/01/19 00:25:42;;;;;;;45.90;22.10;;;2.90;99.90;;;;;;5082006;28;20021;-70
2023/01/19 00:28:12;;;;;;;48.67;23.95;;;2.90;99.90;;;;;;5081866;28;20024;-71
2023/01/19 00:30:38;;;;;;;51.67;23.67;;;2.90;99.90;;;;;;5083119;28;20032;-71
2023/01/19 00:33:04;;;;;;;51.63;23.05;;;2.80;99.90;;;;;;5082915;28;20092;-73
2023/01/19 00:35:30;;;;;;;38.38;19.00;;;2.90;99.90;;;;;;5081556;28;20056;-71
2023/01/19 00:37:57;;;;;;;40.75;20.80;;;2.80;99.90;;;;;;5083253;28;20028;-73
2023/01/19 00:40:24;;;;;;;33.22;15.63;;;2.80;99.90;;;;;;5083509;28;20043;-72
2023/01/19 00:42:49;;;;;;;37.97;18.95;;;2.80;99.90;;;;;;5083382;28;20028;-74
2023/01/19 00:45:17;;;;;;;43.17;18.25;;;2.80;99.90;;;;;;5083129;28;20028;-70
2023/01/19 00:47:44;;;;;;;37.28;15.85;;;2.80;99.90;;;;;;5083039;28;20546;-73
2023/01/19 00:50:11;;;;;;;38.50;18.33;;;2.80;99.90;;;;;;5081254;28;20025;-70
2023/01/19 00:52:40;;;;;;;34.30;17.48;;;2.80;99.90;;;;;;5081512;28;20047;-72
2023/01/19 00:55:07;;;;;;;39.17;16.65;;;2.80;99.90;;;;;;5082886;28;20017;-71
2023/01/19 00:57:33;;;;;;;35.55;14.73;;;2.80;99.90;;;;;;5082148;28;20503;-71
2023/01/19 00:59:59;;;;;;;38.05;16.55;;;2.80;99.90;;;;;;5082375;28;20080;-71
2023/01/19 01:02:24;;;;;;;37.50;18.70;;;2.80;99.90;;;;;;5082968;28;20024;-73
2023/01/19 01:04:53;;;;;;;41.25;19.25;;;2.80;99.90;;;;;;5083020;28;20056;-72
2023/01/19 01:07:20;;;;;;;39.17;17.40;;;2.80;99.90;;;;;;5081591;28;20025;-71
2023/01/19 01:09:46;;;;;;;42.47;19.08;;;2.80;99.90;;;;;;5082255;28;20020;-72
2023/01/19 01:12:12;;;;;;;42.63;17.88;;;2.90;99.90;;;;;;5079955;28;20509;-69
2023/01/19 01:14:37;;;;;;;41.38;17.48;;;2.80;99.90;;;;;;5082392;28;20046;-73
2023/01/19 01:17:03;;;;;;;44.30;18.60;;;2.80;99.90;;;;;;5081194;28;20025;-71
2023/01/19 01:19:30;;;;;;;54.55;22.20;;;2.90;99.90;;;;;;5082472;28;20024;-72
2023/01/19 01:21:55;;;;;;;43.53;19.27;;;2.80;99.90;;;;;;5082347;28;20097;-75
2023/01/19 01:24:21;;;;;;;37.88;18.48;;;2.90;99.90;;;;;;5080694;28;20116;-71
2023/01/19 01:26:47;;;;;;;42.90;21.02;;;2.80;99.90;;;;;;5082277;28;20027;-71
2023/01/19 01:29:12;;;;;;;46.33;20.67;;;2.80;99.90;;;;;;5080892;28;20112;-72
2023/01/19 01:31:38;;;;;;;44.53;20.90;;;2.80;99.90;;;;;;5082159;28;20533;-70
2023/01/19 01:34:04;;;;;;;45.63;18.52;;;2.80;99.90;;;;;;5080756;28;20020;-71
2023/01/19 01:36:32;;;;;;;43.35;19.75;;;2.80;99.90;;;;;;5080673;28;20104;-71
2023/01/19 01:38:58;;;;;;;42.22;21.90;;;2.90;99.90;;;;;;5079502;28;20525;-70
2023/01/19 01:41:25;;;;;;;44.83;18.55;;;2.90;99.90;;;;;;5082317;28;20021;-71
2023/01/19 01:43:55;;;;;;;44.63;22.85;;;2.90;99.90;;;;;;5081872;28;20016;-70
2023/01/19 01:46:21;;;;;;;48.80;22.83;;;2.90;99.90;;;;;;5080648;28;20027;-72
2023/01/19 01:49:11;;;;;;;54.40;24.27;;;2.90;99.90;;;;;;5080582;28;20016;-73
2023/01/19 01:51:51;;;;;;;46.03;20.02;;;2.90;99.90;;;;;;5081778;28;20465;-70
2023/01/19 01:54:20;;;;;;;51.45;18.92;;;2.90;99.90;;;;;;5081823;28;20433;-69
2023/01/19 01:56:48;;;;;;;49.78;24.58;;;2.90;99.90;;;;;;5081552;28;20044;-71
2023/01/19 01:59:24;;;;;;;43.83;20.27;;;2.90;99.90;;;;;;5080178;28;20027;-69
2023/01/19 02:04:37;;;;;;;54.65;22.10;;;2.90;99.90;;;;;;5079867;28;20051;-71
2023/01/19 02:15:19;;;;;;;47.60;21.48;;;2.90;99.90;;;;;;5081326;28;20083;-69
2023/01/19 02:17:45;;;;;;;44.25;22.40;;;2.90;99.90;;;;;;5080497;28;20028;-71
2023/01/19 02:20:11;;;;;;;36.92;17.20;;;2.90;99.90;;;;;;5080997;28;20032;-70
2023/01/19 02:22:47;;;;;;;42.35;18.38;;;2.90;99.90;;;;;;5079791;28;20065;-71
2023/01/19 02:25:13;;;;;;;48.35;23.65;;;2.90;99.90;;;;;;5080419;28;20060;-72
2023/01/19 02:27:39;;;;;;;49.67;22.38;;;2.90;99.90;;;;;;5080187;28;20024;-70
2023/01/19 02:30:06;;;;;;;38.17;18.73;;;2.90;99.90;;;;;;5079222;28;20031;-70
2023/01/19 02:32:32;;;;;;;48.03;21.02;;;2.90;99.90;;;;;;5081128;28;20074;-70
2023/01/19 02:34:57;;;;;;;44.38;23.02;;;2.90;99.90;;;;;;5079928;28;20092;-75
2023/01/19 02:37:24;;;;;;;46.85;20.13;;;2.90;99.90;;;;;;5080132;28;20038;-70
2023/01/19 02:39:56;;;;;;;43.47;22.80;;;2.90;99.90;;;;;;5080030;28;20082;-70
2023/01/19 02:42:28;;;;;;;40.58;18.92;;;2.90;99.90;;;;;;5081279;28;20074;-71
2023/01/19 02:44:55;;;;;;;47.35;22.52;;;2.90;99.90;;;;;;5081106;28;20111;-74
2023/01/19 02:47:21;;;;;;;34.38;17.30;;;2.90;99.90;;;;;;5079430;28;20029;-69
2023/01/19 02:49:56;;;;;;;47.78;23.52;;;2.90;99.90;;;;;;5080976;28;20025;-68
2023/01/19 02:52:22;;;;;;;41.25;19.67;;;2.90;99.90;;;;;;5081292;28;20024;-72
2023/01/19 02:55:00;;;;;;;43.22;22.45;;;2.80;99.90;;;;;;5081099;28;20032;-72
2023/01/19 02:57:35;;;;;;;47.75;23.85;;;2.90;99.90;;;;;;5080627;28;20035;-71
2023/01/19 03:00:14;;;;;;;42.90;22.17;;;2.90;99.90;;;;;;5079645;28;20052;-72
2023/01/19 03:02:55;;;;;;;47.92;23.10;;;2.90;99.90;;;;;;5079629;28;20036;-71
2023/01/19 03:06:00;;;;;;;41.20;20.02;;;2.90;99.90;;;;;;5079739;28;20032;-70
2023/01/19 03:08:40;;;;;;;48.60;24.30;;;2.90;99.90;;;;;;5080783;28;20039;-72
2023/01/19 03:11:08;;;;;;;44.50;22.60;;;2.80;99.90;;;;;;5079885;28;20043;-71
2023/01/19 03:13:55;;;;;;;44.42;21.20;;;2.80;99.90;;;;;;5080627;28;20032;-69
2023/01/19 03:16:26;;;;;;;39.22;19.50;;;2.80;99.90;;;;;;5081074;28;20028;-72
2023/01/19 03:19:03;;;;;;;43.72;21.30;;;2.80;99.90;;;;;;5080881;28;20041;-71
2023/01/19 03:21:29;;;;;;;41.00;20.10;;;2.80;99.90;;;;;;5080643;28;20505;-71
2023/01/19 03:24:00;;;;;;;44.67;22.90;;;2.80;99.90;;;;;;5080783;28;20035;-71
2023/01/19 03:26:29;;;;;;;35.50;14.75;;;2.80;99.90;;;;;;5080782;28;20025;-71
2023/01/19 03:28:59;;;;;;;43.88;21.25;;;2.80;99.90;;;;;;5080373;28;20017;-71
2023/01/19 03:31:27;;;;;;;46.45;23.00;;;2.80;99.90;;;;;;5080293;28;20035;-73
2023/01/19 03:33:57;;;;;;;46.33;22.80;;;2.80;99.90;;;;;;5080602;28;20039;-70
2023/01/19 03:36:31;;;;;;;43.38;21.55;;;2.80;99.90;;;;;;5079432;28;20023;-71
2023/01/19 03:39:00;;;;;;;47.88;22.40;;;2.80;99.90;;;;;;5083977;28;20032;-70
2023/01/19 03:41:29;;;;;;;46.55;22.80;;;2.80;99.90;;;;;;5082792;28;20096;-71
2023/01/19 03:43:56;;;;;;;47.67;23.17;;;2.80;99.90;;;;;;5084360;28;20051;-73
2023/01/19 03:46:23;;;;;;;44.55;21.25;;;2.80;99.90;;;;;;5082818;28;20024;-72
2023/01/19 03:48:49;;;;;;;42.38;18.70;;;2.80;99.90;;;;;;5082632;28;20083;-69
2023/01/19 03:51:15;;;;;;;41.53;20.58;;;2.80;99.90;;;;;;5084185;28;20366;-71
2023/01/19 03:53:41;;;;;;;48.17;23.83;;;2.80;99.90;;;;;;5082405;28;20558;-71
2023/01/19 03:56:18;;;;;;;48.70;23.27;;;2.80;99.90;;;;;;5082695;28;20025;-70
2023/01/19 03:58:44;;;;;;;48.95;24.35;;;2.80;99.90;;;;;;5084006;28;20035;-74
2023/01/19 04:01:09;;;;;;;53.85;25.13;;;2.70;99.90;;;;;;5084037;28;20021;-72
2023/01/19 04:03:35;;;;;;;42.05;19.77;;;2.70;99.90;;;;;;5083903;28;20028;-71
2023/01/19 04:06:01;;;;;;;47.28;23.50;;;2.70;99.90;;;;;;5082545;28;20024;-70
2023/01/19 04:08:27;;;;;;;51.95;24.42;;;2.60;99.90;;;;;;5083960;28;20031;-70
2023/01/19 04:10:52;;;;;;;50.83;23.25;;;2.70;99.90;;;;;;5083314;28;20035;-74
2023/01/19 04:13:18;;;;;;;45.47;20.48;;;2.60;99.90;;;;;;5083670;28;20085;-74
2023/01/19 04:15:43;;;;;;;54.10;27.17;;;2.60;99.90;;;;;;5083805;28;20021;-72
2023/01/19 04:18:09;;;;;;;47.72;21.50;;;2.60;99.90;;;;;;5082500;28;20064;-74
2023/01/19 04:20:36;;;;;;;56.40;27.42;;;2.70;99.90;;;;;;5082068;28;20024;-73
2023/01/19 04:23:01;;;;;;;42.67;21.35;;;2.60;99.90;;;;;;5081433;28;20040;-74
2023/01/19 04:25:27;;;;;;;49.08;22.55;;;2.70;99.90;;;;;;5082171;28;20881;-72
2023/01/19 04:27:54;;;;;;;45.25;20.17;;;2.70;99.90;;;;;;5081913;28;20028;-73
2023/01/19 04:30:21;;;;;;;47.35;25.40;;;2.70;99.90;;;;;;5082114;28;20869;-71
2023/01/19 04:32:46;;;;;;;53.35;27.15;;;2.70;99.90;;;;;;5083322;28;20464;-71
2023/01/19 04:35:12;;;;;;;53.33;26.15;;;2.70;99.90;;;;;;5083390;28;20465;-69
2023/01/19 04:37:38;;;;;;;42.10;21.92;;;2.70;99.90;;;;;;5082091;28;20025;-72
2023/01/19 04:40:05;;;;;;;48.40;25.30;;;2.70;99.90;;;;;;5081667;28;20074;-74
2023/01/19 04:42:31;;;;;;;56.55;25.38;;;2.70;99.90;;;;;;5083378;28;20078;-72
2023/01/19 04:44:56;;;;;;;44.40;23.60;;;2.70;99.90;;;;;;5082064;28;20025;-72
2023/01/19 04:47:22;;;;;;;40.53;20.83;;;2.70;99.90;;;;;;5083210;28;20698;-71
2023/01/19 04:49:48;;;;;;;48.55;23.05;;;2.70;99.90;;;;;;5081162;28;20027;-74
2023/01/19 04:52:13;;;;;;;46.60;22.50;;;2.70;99.90;;;;;;5081488;28;20517;-71
2023/01/19 04:54:40;;;;;;;34.63;16.25;;;2.70;99.90;;;;;;5081816;28;20037;-73
2023/01/19 04:57:05;;;;;;;50.70;25.50;;;2.60;99.90;;;;;;5082398;28;20059;-73
2023/01/19 04:59:31;;;;;;;38.08;18.95;;;2.60;99.90;;;;;;5082087;28;21264;-72
2023/01/19 05:01:57;;;;;;;47.33;21.58;;;2.60;99.90;;;;;;5082836;28;20024;-70
2023/01/19 05:04:24;;;;;;;42.90;21.08;;;2.60;99.90;;;;;;5081660;28;20024;-72
2023/01/19 05:06:50;;;;;;;50.05;25.90;;;2.60;99.90;;;;;;5082463;28;20119;-70
2023/01/19 05:09:16;;;;;;;50.78;24.90;;;2.50;99.90;;;;;;5082493;28;20722;-71
2023/01/19 05:11:41;;;;;;;49.92;25.42;;;2.60;99.90;;;;;;5082405;28;20047;-72
2023/01/19 05:14:07;;;;;;;54.88;25.90;;;2.50;99.90;;;;;;5082557;28;20032;-70
2023/01/19 05:16:33;;;;;;;43.22;21.13;;;2.60;99.90;;;;;;5081058;28;20029;-73
2023/01/19 05:18:59;;;;;;;54.75;26.52;;;2.50;99.90;;;;;;5082399;28;20017;-74
2023/01/19 05:21:25;;;;;;;51.50;25.00;;;2.50;99.90;;;;;;5082501;28;20040;-72
2023/01/19 05:23:51;;;;;;;52.50;24.48;;;2.60;99.90;;;;;;5081233;28;20028;-71
2023/01/19 05:26:17;;;;;;;50.88;24.98;;;2.60;99.90;;;;;;5082505;28;20491;-68
2023/01/19 05:28:42;;;;;;;50.78;24.63;;;2.60;99.90;;;;;;5082499;28;20115;-72
2023/01/19 05:31:08;;;;;;;51.53;25.73;;;2.60;99.90;;;;;;5081022;28;20385;-72
2023/01/19 05:33:33;;;;;;;55.95;27.48;;;2.60;99.90;;;;;;5081091;28;20043;-72
2023/01/19 05:35:59;;;;;;;52.97;25.27;;;2.60;99.90;;;;;;5077543;28;20024;-73
2023/01/19 05:38:25;;;;;;;57.65;27.42;;;2.50;99.90;;;;;;5081064;28;20017;-72
2023/01/19 05:40:56;;;;;;;55.95;27.33;;;2.60;99.90;;;;;;5081510;28;20528;-72
2023/01/19 05:43:24;;;;;;;54.22;25.58;;;2.50;99.90;;;;;;5081884;28;20016;-73
2023/01/19 05:45:50;;;;;;;57.28;27.20;;;2.50;99.90;;;;;;5080399;28;20060;-71
2023/01/19 05:48:15;;;;;;;58.17;26.95;;;2.50;99.90;;;;;;5080127;28;20017;-71
2023/01/19 05:50:41;;;;;;;59.78;29.10;;;2.50;99.90;;;;;;5080095;28;20020;-73
2023/01/19 05:53:07;;;;;;;63.33;29.05;;;2.50;99.90;;;;;;5077605;28;20043;-73
2023/01/19 05:55:32;;;;;;;66.07;31.42;;;2.60;99.90;;;;;;5077700;28;20509;-72
2023/01/19 05:57:58;;;;;;;59.25;28.02;;;2.50;99.90;;;;;;5080485;28;20024;-71
2023/01/19 06:00:26;;;;;;;56.25;26.33;;;2.60;99.90;;;;;;5081420;28;20035;-70
2023/01/19 06:02:52;;;;;;;57.08;25.95;;;2.60;99.90;;;;;;5080950;28;20119;-73
2023/01/19 06:05:18;;;;;;;63.22;30.90;;;2.60;99.90;;;;;;5080762;28;20044;-72
2023/01/19 06:07:44;;;;;;;61.22;28.30;;;2.60;99.90;;;;;;5080441;28;20108;-72
2023/01/19 06:10:10;;;;;;;52.65;26.42;;;2.60;99.90;;;;;;5081864;28;20032;-70
2023/01/19 06:12:39;;;;;;;56.78;26.65;;;2.60;99.90;;;;;;5079861;28;20035;-70
2023/01/19 06:15:06;;;;;;;69.25;30.80;;;2.60;99.90;;;;;;5079007;28;20020;-73
2023/01/19 06:17:32;;;;;;;50.70;23.17;;;2.60;99.90;;;;;;5079706;28;20050;-72
2023/01/19 06:19:58;;;;;;;59.25;26.67;;;2.70;99.90;;;;;;5079937;28;20050;-72
2023/01/19 06:22:24;;;;;;;54.67;25.92;;;2.70;99.90;;;;;;5081287;28;20044;-68
2023/01/19 06:24:49;;;;;;;61.03;27.67;;;2.70;99.90;;;;;;5078591;28;20032;-71
2023/01/19 06:27:15;;;;;;;58.03;27.25;;;2.70;99.90;;;;;;5077133;28;20548;-74
2023/01/19 06:29:41;;;;;;;58.53;26.67;;;2.70;99.90;;;;;;5077648;28;20119;-73
2023/01/19 06:32:07;;;;;;;59.20;27.88;;;2.70;99.90;;;;;;5079447;28;20021;-74
2023/01/19 06:34:32;;;;;;;49.00;18.70;;;2.70;99.90;;;;;;5075085;28;21269;-71
2023/01/19 06:36:58;;;;;;;53.47;25.10;;;2.80;99.90;;;;;;5079415;28;20021;-72
2023/01/19 06:39:26;;;;;;;55.40;27.30;;;2.70;99.90;;;;;;5077575;28;20024;-73
2023/01/19 06:41:52;;;;;;;56.35;25.92;;;2.70;99.90;;;;;;5074815;28;20413;-71
2023/01/19 06:44:17;;;;;;;55.42;26.27;;;2.70;99.90;;;;;;5079349;28;20500;-72
2023/01/19 06:46:43;;;;;;;61.85;27.08;;;2.70;99.90;;;;;;5080277;28;20035;-72
2023/01/19 06:49:08;;;;;;;54.83;23.70;;;2.70;99.90;;;;;;5079381;28;20013;-70
2023/01/19 06:51:34;;;;;;;57.78;28.00;;;2.70;99.90;;;;;;5079272;28;20060;-71
2023/01/19 06:54:00;;;;;;;72.65;31.30;;;2.70;99.90;;;;;;5077114;28;20028;-73
2023/01/19 06:56:27;;;;;;;54.63;26.30;;;2.70;99.90;;;;;;5081141;28;20024;-74
2023/01/19 06:58:54;;;;;;;53.10;22.10;;;2.70;99.90;;;;;;5081060;28;20024;-72
2023/01/19 07:01:19;;;;;;;60.05;26.48;;;2.70;99.90;;;;;;5078495;28;20024;-71
2023/01/19 07:03:45;;;;;;;58.55;26.45;;;2.70;99.90;;;;;;5079763;28;20512;-70
2023/01/19 07:06:11;;;;;;;58.92;28.15;;;2.70;99.90;;;;;;5080277;28;20021;-72
2023/01/19 07:08:38;;;;;;;62.40;28.30;;;2.70;99.90;;;;;;5081139;28;20036;-70
2023/01/19 07:11:07;;;;;;;60.22;28.52;;;2.60;99.90;;;;;;5079893;28;20034;-70
2023/01/19 07:13:34;;;;;;;60.63;28.10;;;2.60;99.90;;;;;;5084867;28;20039;-69
2023/01/19 07:16:08;;;;;;;63.33;28.50;;;2.60;99.90;;;;;;5085354;28;20036;-71
2023/01/19 07:18:35;;;;;;;60.97;27.58;;;2.60;99.90;;;;;;5083376;28;20036;-73
2023/01/19 07:21:01;;;;;;;49.72;23.38;;;2.60;99.90;;;;;;5084985;28;20041;-72
2023/01/19 07:23:29;;;;;;;60.22;28.45;;;2.60;99.90;;;;;;5084099;28;20025;-71
2023/01/19 07:26:00;;;;;;;59.97;26.60;;;2.60;99.90;;;;;;5084879;28;20107;-72
2023/01/19 07:28:27;;;;;;;62.05;28.92;;;2.60;99.90;;;;;;5084243;28;20628;-73
2023/01/19 07:30:54;;;;;;;51.83;24.05;;;2.60;99.90;;;;;;5084940;28;20032;-73
2023/01/19 07:33:21;;;;;;;59.17;26.85;;;2.60;99.90;;;;;;5084629;28;20028;-70
2023/01/19 07:35:51;;;;;;;56.88;28.38;;;2.60;99.90;;;;;;5081381;28;20193;-72
2023/01/19 07:38:17;;;;;;;64.30;28.70;;;2.60;99.90;;;;;;5082972;28;20025;-72
2023/01/19 07:40:43;;;;;;;55.33;27.23;;;2.60;99.90;;;;;;5084875;28;20024;-70
2023/01/19 07:43:09;;;;;;;56.92;28.23;;;2.60;99.90;;;;;;5083104;28;20067;-69
2023/01/19 07:45:35;;;;;;;63.40;30.20;;;2.60;99.90;;;;;;5084558;28;20024;-71
2023/01/19 07:48:00;;;;;;;61.75;27.90;;;2.60;99.90;;;;;;5084180;28;20024;-74
2023/01/19 07:50:28;;;;;;;52.92;25.88;;;2.70;99.90;;;;;;5083530;28;20080;-71
2023/01/19 07:52:53;;;;;;;55.30;25.90;;;2.60;99.90;;;;;;5082933;28;20092;-70
2023/01/19 07:55:20;;;;;;;54.63;27.25;;;2.70;99.90;;;;;;5083199;28;20040;-69
2023/01/19 07:57:50;;;;;;;59.20;27.25;;;2.70;99.90;;;;;;5077104;28;20029;-71
2023/01/19 08:00:20;;;;;;;62.60;27.75;;;2.70;99.90;;;;;;5082858;28;20032;-70
2023/01/19 08:02:48;;;;;;;55.70;27.70;;;2.70;99.90;;;;;;5081355;28;20032;-72
2023/01/19 08:05:15;;;;;;;53.85;26.50;;;2.70;99.90;;;;;;5082875;28;20479;-70
2023/01/19 08:07:40;;;;;;;54.13;26.15;;;2.70;99.90;;;;;;5082951;28;20021;-71
2023/01/19 08:10:07;;;;;;;57.60;28.83;;;2.70;99.90;;;;;;5083691;28;20028;-71
2023/01/19 08:12:32;;;;;;;59.25;28.05;;;2.70;99.90;;;;;;5081123;28;20021;-71
2023/01/19 08:14:58;;;;;;;50.35;25.70;;;2.80;99.90;;;;;;5081834;28;20377;-71
2023/01/19 08:17:23;;;;;;;47.13;22.85;;;2.80;99.90;;;;;;5084078;28;20107;-69
2023/01/19 08:19:49;;;;;;;54.30;27.27;;;2.80;99.90;;;;;;5080510;28;20067;-70
2023/01/19 08:22:14;;;;;;;47.63;22.92;;;2.80;99.90;;;;;;5081610;28;20525;-72
2023/01/19 08:24:40;;;;;;;53.58;26.33;;;2.90;99.90;;;;;;5081248;28;20024;-71
2023/01/19 08:27:08;;;;;;;53.65;25.90;;;2.90;99.90;;;;;;5082679;28;20470;-69
2023/01/19 08:29:34;;;;;;;52.95;24.88;;;2.90;99.90;;;;;;5083396;28;20024;-70
2023/01/19 08:32:01;;;;;;;61.17;28.65;;;2.90;99.90;;;;;;5082914;28;21218;-70
2023/01/19 08:34:29;;;;;;;53.22;25.45;;;2.90;99.90;;;;;;5083455;28;20036;-70
2023/01/19 08:36:56;;;;;;;62.03;27.40;;;2.90;99.90;;;;;;5081676;28;20029;-71
2023/01/19 08:39:22;;;;;;;55.55;25.13;;;2.90;99.90;;;;;;5082229;28;20021;-70
2023/01/19 08:41:49;;;;;;;54.25;24.83;;;2.90;99.90;;;;;;5083446;28;20027;-70
2023/01/19 08:44:14;;;;;;;57.67;26.60;;;3.00;99.90;;;;;;5080970;28;20047;-72
2023/01/19 08:46:40;;;;;;;57.00;26.02;;;3.00;99.90;;;;;;5081086;28;20017;-71
2023/01/19 08:49:07;;;;;;;55.80;27.15;;;3.00;99.90;;;;;;5081503;28;20025;-71
2023/01/19 08:51:33;;;;;;;55.53;24.83;;;3.10;99.90;;;;;;5083674;28;20453;-71
2023/01/19 08:53:59;;;;;;;53.70;26.15;;;3.10;99.90;;;;;;5083320;28;20477;-70
2023/01/19 08:56:25;;;;;;;55.72;23.52;;;3.10;99.90;;;;;;5080239;28;20051;-71
2023/01/19 08:58:50;;;;;;;51.25;23.65;;;3.10;99.90;;;;;;5081539;28;20031;-70
2023/01/19 09:01:17;;;;;;;60.70;26.90;;;3.10;99.90;;;;;;5082717;28;20032;-72
2023/01/19 09:03:43;;;;;;;58.72;26.65;;;3.10;99.90;;;;;;5076198;28;20043;-71
2023/01/19 09:06:09;;;;;;;60.63;28.42;;;3.20;99.90;;;;;;5081172;28;20084;-72
2023/01/19 09:08:35;;;;;;;63.80;27.63;;;3.20;99.90;;;;;;5081963;28;20027;-70
2023/01/19 09:11:01;;;;;;;63.08;29.55;;;3.10;99.90;;;;;;5079406;28;20063;-71
2023/01/19 09:13:27;;;;;;;62.28;28.27;;;3.20;99.90;;;;;;5081158;28;20040;-71
2023/01/19 09:15:52;;;;;;;54.13;24.70;;;3.20;99.90;;;;;;5060380;28;20492;-72
2023/01/19 09:18:20;;;;;;;57.15;27.00;;;3.20;99.90;;;;;;5059315;28;20488;-71
2023/01/19 09:20:48;;;;;;;50.70;24.90;;;3.20;99.90;;;;;;5059561;28;20017;-70
2023/01/19 09:23:19;;;;;;;54.53;25.13;;;3.20;99.90;;;;;;5060431;28;20442;-72
2023/01/19 09:25:46;;;;;;;52.35;23.50;;;3.30;99.90;;;;;;5060190;28;20741;-71
2023/01/19 09:28:14;;;;;;;46.67;21.40;;;3.30;99.90;;;;;;5059737;28;20029;-70
2023/01/19 09:30:41;;;;;;;43.72;21.35;;;3.30;99.90;;;;;;5062690;28;20025;-72
2023/01/19 09:33:10;;;;;;;50.58;21.42;;;3.30;99.90;;;;;;5061596;28;20140;-70
2023/01/19 09:35:39;;;;;;;47.60;20.40;;;3.30;99.90;;;;;;5059395;28;20051;-71
2023/01/19 09:38:07;;;;;;;43.63;21.30;;;3.30;99.90;;;;;;5060217;28;20033;-71
2023/01/19 09:40:35;;;;;;;41.60;20.33;;;3.30;99.90;;;;;;5060854;28;20502;-68
2023/01/19 09:43:11;;;;;;;46.20;19.98;;;3.30;99.90;;;;;;5060806;28;20032;-71
2023/01/19 09:45:57;;;;;;;46.67;21.60;;;3.30;99.90;;;;;;5060811;28;20040;-72
2023/01/19 09:48:31;;;;;;;47.65;21.30;;;3.20;99.90;;;;;;5060828;28;20029;-70
2023/01/19 09:51:01;;;;;;;48.65;20.38;;;3.20;99.90;;;;;;5062183;28;20017;-72
2023/01/19 09:53:49;;;;;;;46.22;20.52;;;3.20;99.90;;;;;;5062368;28;20033;-73
2023/01/19 09:56:16;;;;;;;50.53;21.48;;;3.20;99.90;;;;;;5063176;28;20040;-70
2023/01/19 09:58:42;;;;;;;49.50;22.20;;;3.30;99.90;;;;;;5061724;28;20056;-70
2023/01/19 10:01:24;;;;;;;48.08;21.35;;;3.30;99.90;;;;;;5062138;28;20029;-73
2023/01/19 10:03:58;;;;;;;48.50;20.02;;;3.30;99.90;;;;;;5060862;28;20024;-71
2023/01/19 10:06:25;;;;;;;47.80;21.33;;;3.30;99.90;;;;;;5060172;28;20017;-72
2023/01/19 10:09:07;;;;;;;47.40;19.88;;;3.30;99.90;;;;;;5060473;28;20033;-71
2023/01/19 10:11:38;;;;;;;53.90;23.15;;;3.30;99.90;;;;;;5061103;28;20036;-73
2023/01/19 10:14:15;;;;;;;43.75;21.88;;;3.30;99.90;;;;;;5060187;28;20033;-73
2023/01/19 10:17:16;;;;;;;57.40;23.25;;;3.30;99.90;;;;;;5059579;28;20029;-70
2023/01/19 10:19:47;;;;;;;61.42;24.58;;;3.40;99.90;;;;;;5060853;28;20056;-70
2023/01/19 10:22:22;;;;;;;57.03;23.80;;;3.40;99.90;;;;;;5060147;28;20405;-71
2023/01/19 10:24:52;;;;;;;56.45;23.27;;;3.40;99.90;;;;;;5060007;28;20021;-71
2023/01/19 10:27:23;;;;;;;58.85;24.33;;;3.40;99.90;;;;;;5060692;28;21359;-71
2023/01/19 10:29:48;;;;;;;51.53;24.02;;;3.40;99.90;;;;;;5051639;28;20033;-70
2023/01/19 10:32:16;;;;;;;70.65;25.77;;;3.50;99.90;;;;;;5056765;28;20033;-72
2023/01/19 10:34:42;;;;;;;55.13;23.73;;;3.50;99.90;;;;;;5060395;28;20064;-72
2023/01/19 10:37:16;;;;;;;61.05;24.80;;;3.50;99.90;;;;;;5054900;28;20478;-72
2023/01/19 10:39:52;;;;;;;51.40;23.48;;;3.60;99.90;;;;;;5060703;28;20096;-72
2023/01/19 10:42:18;;;;;;;53.42;22.42;;;3.60;99.90;;;;;;5059830;28;20063;-73
2023/01/19 10:44:44;;;;;;;51.22;22.30;;;3.70;99.90;;;;;;5059925;28;20025;-71
2023/01/19 10:47:19;;;;;;;50.70;23.33;;;3.70;99.90;;;;;;5059558;28;20029;-72
2023/01/19 10:49:46;;;;;;;41.97;18.88;;;3.70;99.90;;;;;;5061604;28;20536;-72
2023/01/19 10:52:32;;;;;;;54.63;22.10;;;3.80;99.90;;;;;;5057781;28;20029;-72
2023/01/19 10:55:00;;;;;;;45.30;20.95;;;3.70;99.90;;;;;;5059070;28;20037;-71
2023/01/19 10:57:42;;;;;;;48.70;18.75;;;3.70;99.90;;;;;;5058404;28;20032;-71
2023/01/19 11:00:29;;;;;;;42.25;19.27;;;3.80;99.90;;;;;;5056999;28;20116;-71
2023/01/19 11:02:55;;;;;;;47.05;18.30;;;3.90;99.90;;;;;;5063306;28;20040;-69
2023/01/19 11:05:24;;;;;;;39.17;18.30;;;3.90;99.90;;;;;;5057681;28;20033;-70
2023/01/19 11:07:50;;;;;;;41.97;17.20;;;3.90;99.90;;;;;;5058052;28;20025;-72
2023/01/19 11:10:16;;;;;;;44.72;17.70;;;4.00;99.90;;;;;;5057866;28;20048;-71
2023/01/19 11:12:44;;;;;;;36.17;16.20;;;4.00;99.90;;;;;;5058195;28;20117;-71
2023/01/19 11:15:28;;;;;;;34.22;14.65;;;4.00;99.90;;;;;;5059087;28;20091;-71
2023/01/19 11:17:57;;;;;;;30.00;13.98;;;4.10;99.90;;;;;;5059143;28;20037;-70
2023/01/19 11:20:47;;;;;;;21.85;11.02;;;4.10;99.90;;;;;;5058743;28;20048;-70
2023/01/19 11:23:23;;;;;;;25.88;10.77;;;4.10;99.90;;;;;;5060035;28;20063;-70
2023/01/19 11:25:50;;;;;;;18.50;8.98;;;4.20;99.90;;;;;;5059510;28;20395;-70
2023/01/19 11:28:27;;;;;;;21.17;8.13;;;4.10;99.90;;;;;;5056562;28;20025;-70
2023/01/19 11:31:01;;;;;;;19.38;7.22;;;4.20;99.90;;;;;;5059436;28;20226;-70
2023/01/19 11:34:00;;;;;;;16.90;7.43;;;4.10;99.90;;;;;;5060918;28;20053;-70
2023/01/19 11:36:32;;;;;;;20.85;6.68;;;4.20;99.90;;;;;;5057339;28;20037;-71
2023/01/19 11:39:09;;;;;;;17.75;5.50;;;4.30;99.90;;;;;;5057415;28;20060;-71
2023/01/19 11:41:36;;;;;;;15.13;5.90;;;4.30;99.90;;;;;;5058859;28;20017;-72
2023/01/19 11:44:28;;;;;;;14.02;5.57;;;4.50;99.90;;;;;;5059353;28;20051;-73
2023/01/19 11:46:59;;;;;;;11.73;4.72;;;4.60;99.90;;;;;;5060080;28;20027;-71
2023/01/19 11:49:48;;;;;;;12.80;5.07;;;4.80;99.90;;;;;;5060292;28;20081;-71
2023/01/19 11:52:14;;;;;;;11.82;4.20;;;4.90;99.90;;;;;;5059488;28;20040;-71
2023/01/19 11:54:58;;;;;;;18.35;7.95;;;4.90;99.90;;;;;;5059434;28;20029;-71
2023/01/19 11:57:25;;;;;;;12.45;3.22;;;5.00;99.90;;;;;;5059733;28;20037;-72
2023/01/19 11:59:50;;;;;;;9.45;2.97;;;5.00;99.90;;;;;;5061884;28;20057;-69
2023/01/19 12:02:40;;;;;;;7.90;2.35;;;5.00;99.90;;;;;;5061367;28;20096;-70
2023/01/19 12:05:13;;;;;;;10.88;2.35;;;5.00;99.90;;;;;;5063859;28;20107;-71
2023/01/19 12:07:42;;;;;;;9.82;2.92;;;5.10;99.90;;;;;;5059335;28;20065;-72
2023/01/19 12:10:19;;;;;;;9.55;2.78;;;5.20;99.90;;;;;;5060238;28;20098;-71
2023/01/19 12:12:46;;;;;;;7.35;2.53;;;5.50;99.90;;;;;;5060916;28;20040;-71
2023/01/19 12:15:26;;;;;;;7.68;2.65;;;5.70;99.90;;;;;;5059120;28;20458;-72
2023/01/19 12:17:57;;;;;;;7.55;2.33;;;6.00;99.90;;;;;;5053904;28;20101;-71
2023/01/19 12:20:43;;;;;;;6.50;1.98;;;6.10;99.90;;;;;;5059258;28;20395;-71
2023/01/19 12:23:28;;;;;;;5.38;1.55;;;6.30;99.90;;;;;;5061355;28;20114;-71
2023/01/19 12:26:18;;;;;;;6.05;1.40;;;6.30;99.90;;;;;;5054249;28;20088;-70
2023/01/19 12:28:49;;;;;;;4.50;1.40;;;6.20;99.90;;;;;;5059097;28;20029;-69
2023/01/19 12:31:17;;;;;;;6.65;1.30;;;6.20;99.90;;;;;;5062223;28;20559;-71
2023/01/19 12:33:43;;;;;;;7.95;1.63;;;6.20;99.90;;;;;;5062552;28;20039;-69
2023/01/19 12:36:11;;;;;;;10.63;2.13;;;6.10;99.90;;;;;;5061736;28;20021;-70
2023/01/19 12:39:00;;;;;;;15.25;2.00;;;6.10;99.90;;;;;;5061301;28;20086;-71
2023/01/19 12:41:32;;;;;;;7.70;2.05;;;6.10;99.90;;;;;;5062649;28;20132;-71
2023/01/19 12:44:10;;;;;;;16.75;2.70;;;6.20;99.90;;;;;;5061449;28;20029;-71
2023/01/19 12:46:39;;;;;;;12.30;2.60;;;6.30;99.90;;;;;;5062693;28;20397;-71
2023/01/19 12:49:31;;;;;;;8.15;2.50;;;6.50;99.90;;;;;;5061031;28;20541;-70
2023/01/19 12:52:15;;;;;;;14.98;2.92;;;6.60;99.90;;;;;;5066534;28;20063;-71
2023/01/19 12:54:49;;;;;;;12.30;2.63;;;6.50;99.90;;;;;;5060407;28;20414;-69
2023/01/19 12:57:45;;;;;;;9.93;2.70;;;6.70;99.90;;;;;;5060657;28;20124;-70
2023/01/19 13:00:22;;;;;;;12.13;2.50;;;7.30;99.90;;;;;;5062514;28;20024;-70